createdAt,value
2018-03-06T00:00:52.070Z,2.70
2018-03-06T00:03:20.385Z,2.62
2018-03-06T00:05:48.738Z,2.46
2018-03-06T00:08:17.057Z,2.43
2018-03-06T00:10:45.401Z,2.30
2018-03-06T00:13:13.718Z,2.32
2018-03-06T00:15:42.058Z,2.28
2018-03-06T00:18:10.374Z,2.28
2018-03-06T00:20:38.722Z,2.24
2018-03-06T00:23:07.046Z,2.16
2018-03-06T00:25:35.388Z,2.25
2018-03-06T00:28:03.701Z,2.40
2018-03-06T00:30:32.046Z,2.35
2018-03-06T00:33:00.377Z,2.42
2018-03-06T00:35:28.701Z,2.26
2018-03-06T00:37:57.022Z,2.29
2018-03-06T00:40:25.346Z,2.05
2018-03-06T00:42:53.686Z,1.91
2018-03-06T00:45:22.010Z,1.95
2018-03-06T00:47:50.346Z,1.89
2018-03-06T00:50:18.670Z,1.93
2018-03-06T00:52:47.019Z,1.97
2018-03-06T00:55:15.334Z,1.98
2018-03-06T00:57:43.679Z,1.96
2018-03-06T01:00:11.990Z,1.93
2018-03-06T01:02:40.330Z,1.81
2018-03-06T01:05:08.648Z,1.76
2018-03-06T01:07:36.986Z,1.76
2018-03-06T01:10:05.322Z,1.77
2018-03-06T01:12:33.661Z,1.93
2018-03-06T01:15:01.982Z,1.88
2018-03-06T01:17:30.318Z,1.85
2018-03-06T01:19:58.642Z,1.75
2018-03-06T01:22:26.982Z,1.67
2018-03-06T01:24:55.303Z,1.72
2018-03-06T01:27:23.646Z,1.85
2018-03-06T01:29:51.991Z,1.80
2018-03-06T01:32:20.310Z,1.75
2018-03-06T01:34:48.649Z,1.70
2018-03-06T01:37:16.970Z,1.56
2018-03-06T01:39:45.315Z,1.59
2018-03-06T01:42:13.629Z,1.65
2018-03-06T01:44:41.967Z,1.52
2018-03-06T01:47:10.323Z,1.46
2018-03-06T01:49:38.666Z,1.49
2018-03-06T01:52:06.990Z,1.30
2018-03-06T01:54:35.331Z,1.36
2018-03-06T01:57:03.650Z,1.33
2018-03-06T01:59:31.991Z,1.28
2018-03-06T02:02:00.311Z,1.35
2018-03-06T02:04:28.654Z,1.40
2018-03-06T02:06:56.980Z,1.40
2018-03-06T02:09:25.325Z,1.40
2018-03-06T02:11:53.630Z,1.48
2018-03-06T02:14:21.974Z,1.52
2018-03-06T02:16:50.294Z,1.56
2018-03-06T02:19:18.642Z,1.58
2018-03-06T02:21:46.969Z,1.58
2018-03-06T02:24:15.301Z,1.65
2018-03-06T02:26:43.634Z,1.72
2018-03-06T02:29:11.954Z,1.82
2018-03-06T02:31:40.293Z,1.83
2018-03-06T02:34:08.616Z,1.95
2018-03-06T02:36:36.953Z,2.00
2018-03-06T02:39:05.273Z,2.10
2018-03-06T02:41:33.615Z,2.10
2018-03-06T02:44:01.935Z,1.84
2018-03-06T02:46:30.274Z,1.42
2018-03-06T02:48:58.590Z,1.29
2018-03-06T02:51:26.929Z,1.33
2018-03-06T02:53:55.246Z,1.21
2018-03-06T02:56:23.583Z,1.19
2018-03-06T02:58:51.907Z,1.10
2018-03-06T03:01:20.259Z,1.10
2018-03-06T03:03:48.573Z,1.27
2018-03-06T03:06:16.910Z,1.32
2018-03-06T03:08:45.234Z,1.30
2018-03-06T03:11:13.574Z,1.24
2018-03-06T03:13:41.890Z,1.35
2018-03-06T03:16:10.225Z,1.44
2018-03-06T03:18:38.550Z,1.58
2018-03-06T03:21:06.895Z,1.69
2018-03-06T03:23:35.224Z,1.74
2018-03-06T03:26:03.570Z,1.67
2018-03-06T03:28:31.880Z,1.70
2018-03-06T03:31:00.203Z,1.65
2018-03-06T03:33:28.546Z,1.50
2018-03-06T03:35:56.870Z,1.22
2018-03-06T03:38:25.209Z,1.12
2018-03-06T03:40:53.535Z,0.99
2018-03-06T03:43:21.874Z,1.04
2018-03-06T03:45:50.186Z,1.00
2018-03-06T03:48:18.534Z,0.91
2018-03-06T03:50:46.874Z,1.04
2018-03-06T03:53:15.214Z,1.00
2018-03-06T03:55:43.529Z,0.82
2018-03-06T03:58:11.874Z,0.93
2018-03-06T04:00:40.197Z,0.81
2018-03-06T04:03:08.530Z,0.81
2018-03-06T04:05:36.845Z,0.76
2018-03-06T04:08:05.189Z,0.77
2018-03-06T04:10:33.501Z,0.85
2018-03-06T04:13:01.850Z,0.89
2018-03-06T04:15:30.171Z,0.94
2018-03-06T04:17:58.490Z,0.89
2018-03-06T04:20:26.827Z,0.95
2018-03-06T04:22:55.142Z,0.91
2018-03-06T04:25:23.478Z,1.02
2018-03-06T04:27:51.798Z,1.14
2018-03-06T04:30:20.146Z,1.26
2018-03-06T04:32:48.466Z,1.21
2018-03-06T04:35:16.801Z,1.32
2018-03-06T04:37:45.130Z,1.20
2018-03-06T04:40:13.473Z,1.07
2018-03-06T04:42:41.793Z,1.14
2018-03-06T04:45:10.130Z,1.10
2018-03-06T04:47:38.454Z,1.15
2018-03-06T04:50:06.785Z,1.11
2018-03-06T04:52:35.106Z,1.12
2018-03-06T04:55:03.445Z,1.06
2018-03-06T04:57:31.786Z,1.14
2018-03-06T05:00:00.107Z,1.20
2018-03-06T05:02:28.446Z,1.05
2018-03-06T05:04:56.768Z,0.93
2018-03-06T05:07:25.122Z,0.87
2018-03-06T05:09:53.446Z,0.82
2018-03-06T05:12:21.782Z,0.90
2018-03-06T05:14:50.102Z,0.97
2018-03-06T05:17:18.441Z,0.94
2018-03-06T05:19:46.757Z,0.94
2018-03-06T05:22:15.098Z,0.94
2018-03-06T05:24:43.413Z,1.06
2018-03-06T05:27:11.762Z,1.10
2018-03-06T05:29:40.082Z,1.09
2018-03-06T05:32:08.432Z,1.06
2018-03-06T05:34:36.750Z,1.05
2018-03-06T05:37:11.185Z,1.06
2018-03-06T05:39:40.458Z,1.04
2018-03-06T05:42:08.777Z,1.00
2018-03-06T05:44:37.121Z,1.07
2018-03-06T05:47:05.447Z,1.05
2018-03-06T05:49:33.785Z,1.09
2018-03-06T05:52:02.107Z,1.09
2018-03-06T05:54:30.455Z,1.07
2018-03-06T05:56:59.083Z,1.11
2018-03-06T05:59:27.422Z,1.08
2018-03-06T06:01:55.746Z,1.05
2018-03-06T06:04:24.098Z,0.96
2018-03-06T06:06:52.420Z,1.04
2018-03-06T06:09:20.762Z,1.08
2018-03-06T06:11:49.083Z,0.95
2018-03-06T06:14:17.430Z,0.78
2018-03-06T06:16:45.753Z,0.71
2018-03-06T06:19:14.104Z,0.68
2018-03-06T06:21:43.445Z,0.75
2018-03-06T06:24:11.794Z,0.53
2018-03-06T06:26:40.113Z,0.51
2018-03-06T06:29:08.624Z,0.69
2018-03-06T06:31:37.181Z,0.73
2018-03-06T06:34:05.499Z,0.68
2018-03-06T06:36:33.843Z,0.58
2018-03-06T06:39:02.170Z,0.55
2018-03-06T06:41:30.512Z,0.66
2018-03-06T06:43:58.833Z,0.79
2018-03-06T06:46:27.173Z,0.88
2018-03-06T06:48:55.498Z,0.86
2018-03-06T06:51:23.841Z,0.83
2018-03-06T06:53:52.162Z,0.86
2018-03-06T06:56:20.501Z,0.83
2018-03-06T06:58:48.817Z,0.86
2018-03-06T07:01:17.153Z,0.98
2018-03-06T07:03:45.474Z,1.02
2018-03-06T07:06:13.819Z,1.00
2018-03-06T07:08:42.143Z,1.04
2018-03-06T07:11:10.484Z,1.09
2018-03-06T07:13:38.810Z,1.23
2018-03-06T07:16:07.154Z,1.28
2018-03-06T07:18:35.475Z,1.25
2018-03-06T07:21:03.834Z,1.43
2018-03-06T07:23:32.163Z,1.42
2018-03-06T07:26:01.479Z,1.36
2018-03-06T07:28:29.817Z,1.38
2018-03-06T07:30:58.142Z,1.38
2018-03-06T07:33:26.486Z,1.43
2018-03-06T07:35:54.805Z,1.54
2018-03-06T07:38:23.145Z,1.49
2018-03-06T07:40:51.465Z,1.65
2018-03-06T07:43:19.805Z,1.67
2018-03-06T07:45:48.129Z,1.79
2018-03-06T07:48:16.542Z,1.81
2018-03-06T07:50:44.861Z,1.76
2018-03-06T07:53:13.210Z,1.95
2018-03-06T07:55:41.530Z,1.96
2018-03-06T07:58:09.875Z,2.06
2018-03-06T08:00:38.248Z,2.09
2018-03-06T08:03:06.538Z,2.11
2018-03-06T08:05:34.862Z,2.16
2018-03-06T08:08:03.214Z,2.27
2018-03-06T08:10:31.539Z,2.29
2018-03-06T08:12:59.861Z,2.31
2018-03-06T08:15:28.198Z,2.34
2018-03-06T08:17:56.526Z,2.46
2018-03-06T08:20:24.876Z,2.49
2018-03-06T08:22:53.205Z,2.64
2018-03-06T08:25:21.542Z,2.71
2018-03-06T08:27:49.861Z,2.74
2018-03-06T08:30:18.254Z,2.83
2018-03-06T08:32:46.530Z,2.92
2018-03-06T08:35:14.870Z,3.00
2018-03-06T08:37:43.252Z,3.07
2018-03-06T08:40:11.540Z,3.13
2018-03-06T08:42:39.865Z,3.25
2018-03-06T08:45:08.202Z,3.32
2018-03-06T08:47:36.526Z,3.38
2018-03-06T08:50:04.870Z,3.43
2018-03-06T08:52:33.195Z,3.56
2018-03-06T08:55:01.534Z,3.66
2018-03-06T08:57:29.858Z,3.71
2018-03-06T08:59:58.206Z,3.77
2018-03-06T09:02:26.538Z,3.75
2018-03-06T09:04:54.858Z,3.77
2018-03-06T09:07:23.215Z,3.73
2018-03-06T09:09:51.533Z,3.77
2018-03-06T09:12:19.885Z,3.80
2018-03-06T09:14:48.211Z,3.77
2018-03-06T09:17:16.550Z,3.92
2018-03-06T09:19:44.890Z,3.94
2018-03-06T09:22:13.246Z,3.98
2018-03-06T09:24:41.571Z,3.98
2018-03-06T09:27:09.926Z,4.07
2018-03-06T09:29:38.258Z,4.05
2018-03-06T09:32:06.606Z,4.15
2018-03-06T09:34:34.930Z,4.16
2018-03-06T09:37:03.291Z,4.28
2018-03-06T09:39:31.618Z,4.37
2018-03-06T09:41:59.950Z,4.35
2018-03-06T09:44:28.298Z,4.41
2018-03-06T09:46:56.622Z,4.41
2018-03-06T09:49:24.982Z,4.52
2018-03-06T09:51:53.300Z,4.55
2018-03-06T09:54:21.658Z,4.60
2018-03-06T09:56:49.979Z,4.62
2018-03-06T09:59:18.326Z,4.74
2018-03-06T10:01:46.662Z,4.78
2018-03-06T10:04:15.014Z,4.83
2018-03-06T10:06:43.371Z,4.87
2018-03-06T10:09:11.747Z,4.98
2018-03-06T10:11:40.103Z,4.99
2018-03-06T10:14:08.478Z,5.05
2018-03-06T10:16:36.830Z,5.06
2018-03-06T10:19:05.227Z,5.10
2018-03-06T10:21:33.583Z,5.12
2018-03-06T10:24:01.966Z,5.17
2018-03-06T10:26:30.386Z,5.23
2018-03-06T10:28:58.735Z,5.32
2018-03-06T10:31:27.116Z,5.41
2018-03-06T10:33:55.468Z,5.40
2018-03-06T10:36:23.844Z,5.48
2018-03-06T10:38:52.203Z,5.59
2018-03-06T10:41:20.576Z,5.58
2018-03-06T10:43:48.936Z,5.64
2018-03-06T10:46:17.315Z,5.68
2018-03-06T10:48:45.668Z,5.74
2018-03-06T10:51:14.044Z,5.80
2018-03-06T10:53:42.403Z,5.84
2018-03-06T10:56:10.784Z,5.89
2018-03-06T10:58:39.132Z,5.93
2018-03-06T11:01:07.515Z,6.00
2018-03-06T11:03:35.865Z,6.08
2018-03-06T11:06:04.202Z,6.13
2018-03-06T11:08:32.530Z,6.20
2018-03-06T11:11:00.859Z,6.07
2018-03-06T11:13:29.206Z,6.13
2018-03-06T11:15:57.532Z,6.27
2018-03-06T11:18:25.912Z,6.33
2018-03-06T11:20:54.210Z,6.44
2018-03-06T11:23:22.554Z,6.53
2018-03-06T11:25:50.886Z,6.60
2018-03-06T11:28:19.238Z,6.72
2018-03-06T11:30:47.567Z,6.68
2018-03-06T11:33:15.914Z,6.70
2018-03-06T11:35:44.246Z,6.74
2018-03-06T11:38:12.598Z,6.88
2018-03-06T11:40:40.926Z,6.94
2018-03-06T11:43:09.278Z,7.02
2018-03-06T11:45:37.612Z,7.13
2018-03-06T11:48:05.962Z,7.20
2018-03-06T11:50:34.534Z,7.17
2018-03-06T11:53:02.886Z,7.24
2018-03-06T11:55:31.214Z,7.29
2018-03-06T11:57:59.570Z,7.34
2018-03-06T12:00:27.898Z,7.47
2018-03-06T12:02:56.229Z,7.39
2018-03-06T12:05:24.586Z,7.45
2018-03-06T12:07:52.906Z,7.47
2018-03-06T12:10:21.357Z,7.48
2018-03-06T12:12:49.690Z,7.62
2018-03-06T12:15:18.041Z,7.65
2018-03-06T12:17:46.377Z,7.59
2018-03-06T12:20:14.722Z,7.69
2018-03-06T12:22:43.046Z,7.69
2018-03-06T12:25:11.404Z,7.63
2018-03-06T12:27:39.726Z,7.51
2018-03-06T12:30:09.103Z,7.46
2018-03-06T12:32:37.439Z,7.44
2018-03-06T12:35:05.787Z,7.52
2018-03-06T12:37:34.116Z,7.62
2018-03-06T12:40:02.507Z,7.65
2018-03-06T12:42:30.913Z,7.63
2018-03-06T12:44:59.241Z,7.65
2018-03-06T12:47:27.590Z,7.67
2018-03-06T12:49:55.922Z,7.77
2018-03-06T12:52:24.267Z,7.82
2018-03-06T12:54:52.601Z,7.85
2018-03-06T12:57:21.036Z,7.84
2018-03-06T12:59:49.348Z,7.79
2018-03-06T13:02:17.699Z,7.75
2018-03-06T13:04:46.026Z,7.74
2018-03-06T13:07:14.374Z,7.77
2018-03-06T13:09:43.530Z,7.72
2018-03-06T13:12:11.878Z,7.67
2018-03-06T13:14:40.211Z,7.75
2018-03-06T13:17:08.566Z,7.81
2018-03-06T13:19:36.921Z,7.86
2018-03-06T13:22:05.261Z,7.95
2018-03-06T13:24:33.603Z,7.86
2018-03-06T13:27:01.975Z,7.87
2018-03-06T13:29:30.306Z,7.83
2018-03-06T13:31:58.662Z,7.81
2018-03-06T13:34:27.014Z,7.84
2018-03-06T13:36:55.363Z,7.89
2018-03-06T13:39:23.697Z,7.88
2018-03-06T13:41:52.032Z,7.86
2018-03-06T13:44:20.379Z,7.90
2018-03-06T13:46:48.702Z,7.89
2018-03-06T13:49:17.993Z,7.94
2018-03-06T13:51:46.325Z,7.91
2018-03-06T13:54:14.675Z,8.00
2018-03-06T13:56:43.890Z,8.04
2018-03-06T13:59:12.242Z,8.09
2018-03-06T14:01:40.570Z,8.04
2018-03-06T14:04:08.919Z,7.96
2018-03-06T14:06:37.258Z,7.93
2018-03-06T14:09:05.605Z,7.89
2018-03-06T14:11:33.921Z,7.94
2018-03-06T14:14:02.298Z,8.02
2018-03-06T14:16:30.631Z,8.06
2018-03-06T14:18:58.949Z,8.00
2018-03-06T14:21:27.298Z,7.88
2018-03-06T14:23:55.786Z,7.90
2018-03-06T14:26:24.970Z,7.83
2018-03-06T14:28:53.294Z,7.79
2018-03-06T14:31:21.648Z,7.81
2018-03-06T14:33:49.968Z,7.73
2018-03-06T14:36:18.996Z,7.75
2018-03-06T14:38:47.325Z,7.71
2018-03-06T14:41:15.680Z,7.76
2018-03-06T14:43:44.025Z,7.75
2018-03-06T14:46:12.398Z,7.69
2018-03-06T14:48:40.728Z,7.66
2018-03-06T14:51:09.082Z,7.63
2018-03-06T14:53:37.406Z,7.61
2018-03-06T14:56:05.782Z,7.57
2018-03-06T14:58:34.159Z,7.51
2018-03-06T15:01:02.637Z,7.46
2018-03-06T15:03:30.970Z,7.45
2018-03-06T15:05:59.321Z,7.34
2018-03-06T15:08:27.885Z,7.28
2018-03-06T15:10:56.215Z,7.26
2018-03-06T15:13:24.568Z,7.22
2018-03-06T15:15:53.337Z,7.28
2018-03-06T15:18:21.679Z,7.30
2018-03-06T15:20:50.002Z,7.23
2018-03-06T15:23:18.354Z,7.20
2018-03-06T15:25:46.695Z,7.18
2018-03-06T15:28:15.047Z,7.23
2018-03-06T15:30:43.404Z,7.14
2018-03-06T15:33:11.778Z,7.11
2018-03-06T15:35:40.103Z,7.08
2018-03-06T15:38:08.458Z,7.03
2018-03-06T15:40:36.896Z,7.00
2018-03-06T15:43:05.323Z,6.98
2018-03-06T15:45:33.650Z,6.96
2018-03-06T15:48:02.459Z,6.97
2018-03-06T15:50:30.799Z,6.93
2018-03-06T15:52:59.114Z,6.82
2018-03-06T15:55:27.467Z,6.83
2018-03-06T15:57:55.849Z,6.80
2018-03-06T16:00:24.177Z,6.78
2018-03-06T16:02:52.514Z,6.73
2018-03-06T16:05:20.862Z,6.68
2018-03-06T16:07:49.251Z,6.61
2018-03-06T16:10:17.606Z,6.51
2018-03-06T16:12:46.019Z,6.52
2018-03-06T16:15:14.372Z,6.49
2018-03-06T16:17:42.712Z,6.49
2018-03-06T16:20:11.064Z,6.47
2018-03-06T16:22:39.390Z,6.48
2018-03-06T16:25:07.748Z,6.38
2018-03-06T16:27:36.191Z,6.18
2018-03-06T16:30:04.545Z,6.28
2018-03-06T16:32:32.877Z,6.28
2018-03-06T16:35:01.226Z,6.10
2018-03-06T16:37:29.567Z,6.09
2018-03-06T16:39:57.970Z,6.05
2018-03-06T16:42:26.298Z,6.01
2018-03-06T16:44:54.662Z,5.92
2018-03-06T16:47:23.887Z,5.87
2018-03-06T16:49:52.219Z,5.80
2018-03-06T16:52:20.561Z,5.66
2018-03-06T16:54:48.919Z,5.63
2018-03-06T16:57:17.266Z,5.58
2018-03-06T16:59:45.599Z,5.61
2018-03-06T17:02:13.952Z,5.44
2018-03-06T17:04:42.283Z,5.50
2018-03-06T17:07:11.688Z,5.39
2018-03-06T17:09:40.014Z,5.39
2018-03-06T17:12:08.362Z,5.33
2018-03-06T17:14:36.692Z,5.22
2018-03-06T17:17:05.041Z,5.26
2018-03-06T17:19:33.364Z,5.27
2018-03-06T17:22:01.722Z,5.19
2018-03-06T17:24:30.172Z,5.16
2018-03-06T17:26:59.354Z,5.12
2018-03-06T17:29:27.678Z,5.04
2018-03-06T17:31:56.030Z,4.94
2018-03-06T17:34:24.363Z,4.92
2018-03-06T17:36:52.690Z,5.08
2018-03-06T17:39:21.041Z,4.99
2018-03-06T17:41:49.366Z,4.88
2018-03-06T17:44:18.554Z,4.89
2018-03-06T17:46:46.882Z,4.83
2018-03-06T17:49:15.239Z,4.77
2018-03-06T17:51:43.566Z,4.74
2018-03-06T17:54:11.915Z,4.61
2018-03-06T17:56:41.135Z,4.58
2018-03-06T17:59:09.495Z,4.50
2018-03-06T18:01:37.827Z,4.42
2018-03-06T18:04:06.173Z,4.36
2018-03-06T18:06:34.514Z,4.37
2018-03-06T18:09:02.902Z,4.23
2018-03-06T18:11:31.223Z,4.16
2018-03-06T18:13:59.578Z,4.19
2018-03-06T18:16:27.907Z,4.11
2018-03-06T18:18:56.229Z,4.08
2018-03-06T18:21:24.687Z,4.09
2018-03-06T18:23:53.039Z,4.12
2018-03-06T18:26:21.378Z,4.11
2018-03-06T18:28:49.707Z,4.17
2018-03-06T18:31:18.119Z,4.14
2018-03-06T18:33:46.473Z,4.15
2018-03-06T18:36:14.817Z,4.16
2018-03-06T18:38:43.150Z,4.21
2018-03-06T18:41:11.503Z,4.13
2018-03-06T18:43:39.867Z,4.10
2018-03-06T18:46:09.281Z,4.11
2018-03-06T18:48:37.594Z,4.20
2018-03-06T18:51:13.635Z,4.25
2018-03-06T18:53:41.970Z,4.11
2018-03-06T18:56:10.324Z,4.06
2018-03-06T18:58:38.671Z,4.05
2018-03-06T19:04:22.539Z,3.94
2018-03-06T19:07:12.369Z,3.95
2018-03-06T19:09:40.771Z,3.88
2018-03-06T19:12:09.124Z,3.84
2018-03-06T19:14:37.460Z,3.82
2018-03-06T19:17:05.874Z,3.74
2018-03-06T19:19:34.210Z,3.78
2018-03-06T19:22:02.565Z,3.72
2018-03-06T19:24:30.932Z,3.70
2018-03-06T19:26:59.306Z,3.73
2018-03-06T19:29:27.642Z,3.66
2018-03-06T19:31:55.998Z,3.70
2018-03-06T19:34:24.437Z,3.68
2018-03-06T19:36:52.770Z,3.60
2018-03-06T19:39:21.119Z,3.67
2018-03-06T19:41:49.458Z,3.57
2018-03-06T19:44:17.885Z,3.55
2018-03-06T19:46:46.246Z,3.58
2018-03-06T19:49:14.714Z,3.62
2018-03-06T19:51:43.095Z,3.57
2018-03-06T19:54:11.523Z,3.56
2018-03-06T19:56:40.047Z,3.68
2018-03-06T19:59:08.447Z,3.83
2018-03-06T20:01:37.153Z,3.82
2018-03-06T20:04:06.579Z,3.74
2018-03-06T20:06:35.215Z,3.83
2018-03-06T20:09:04.049Z,3.91
2018-03-06T20:11:33.193Z,3.83
2018-03-06T20:14:01.731Z,3.74
2018-03-06T20:16:30.506Z,3.69
2018-03-06T20:19:04.906Z,3.72
2018-03-06T20:21:33.479Z,3.78
2018-03-06T20:24:07.836Z,3.84
2018-03-06T20:26:37.098Z,3.83
2018-03-06T20:29:06.271Z,3.80
2018-03-06T20:31:40.368Z,3.64
2018-03-06T20:34:08.923Z,3.64
2018-03-06T20:36:37.736Z,3.63
2018-03-06T20:41:45.771Z,3.71
2018-03-06T20:44:15.249Z,3.58
2018-03-06T20:46:49.495Z,3.59
2018-03-06T20:49:18.257Z,3.54
2018-03-06T20:51:47.307Z,3.48
2018-03-06T20:54:21.523Z,3.57
2018-03-06T20:56:50.205Z,3.51
2018-03-06T20:59:18.916Z,3.49
2018-03-06T21:01:47.607Z,3.63
2018-03-06T21:04:16.206Z,3.71
2018-03-06T21:06:44.970Z,3.74
2018-03-06T21:09:13.658Z,3.62
2018-03-06T21:11:42.440Z,3.32
2018-03-06T21:14:11.169Z,3.32
2018-03-06T21:16:40.142Z,3.45
2018-03-06T21:19:08.973Z,3.45
2018-03-06T21:21:38.042Z,3.49
2018-03-06T21:24:07.420Z,3.20
2018-03-06T21:26:37.329Z,3.15
2018-03-06T21:29:06.025Z,3.27
2018-03-06T21:31:34.754Z,3.37
2018-03-06T21:34:03.641Z,3.38
2018-03-06T21:36:32.412Z,3.36
2018-03-06T21:39:01.341Z,3.32
2018-03-06T21:41:29.946Z,3.17
2018-03-06T21:43:58.572Z,3.08
2018-03-06T21:46:26.967Z,3.00
2018-03-06T21:48:55.318Z,2.95
2018-03-06T21:51:23.722Z,3.08
2018-03-06T21:53:52.050Z,3.17
2018-03-06T21:56:20.373Z,3.00
2018-03-06T21:58:48.721Z,3.01
2018-03-06T22:01:17.053Z,2.95
2018-03-06T22:03:45.398Z,2.97
2018-03-06T22:06:13.717Z,2.90
2018-03-06T22:08:42.068Z,2.89
2018-03-06T22:11:10.391Z,2.71
2018-03-06T22:13:38.739Z,2.79
2018-03-06T22:16:07.066Z,2.85
2018-03-06T22:18:35.424Z,2.79
2018-03-06T22:21:03.742Z,2.86
2018-03-06T22:23:32.086Z,2.85
2018-03-06T22:26:00.412Z,2.96
2018-03-06T22:28:28.804Z,2.94
2018-03-06T22:30:57.111Z,2.88
2018-03-06T22:33:25.434Z,2.94
2018-03-06T22:35:53.782Z,2.70
2018-03-06T22:38:22.137Z,2.62
2018-03-06T22:40:50.450Z,2.60
2018-03-06T22:43:18.777Z,2.71
2018-03-06T22:45:47.121Z,2.69
2018-03-06T22:48:15.446Z,2.74
2018-03-06T22:50:43.793Z,2.71
2018-03-06T22:53:12.113Z,2.75
2018-03-06T22:55:40.462Z,2.58
2018-03-06T22:58:08.785Z,2.58
2018-03-06T23:00:37.134Z,2.67
2018-03-06T23:03:05.454Z,2.60
2018-03-06T23:05:33.810Z,2.60
2018-03-06T23:08:02.203Z,2.55
2018-03-06T23:10:30.538Z,2.71
2018-03-06T23:12:58.958Z,2.83
2018-03-06T23:15:27.285Z,2.94
2018-03-06T23:17:55.620Z,2.96
2018-03-06T23:20:23.949Z,2.96
2018-03-06T23:22:52.270Z,2.90
2018-03-06T23:25:20.630Z,2.98
2018-03-06T23:27:48.950Z,2.86
2018-03-06T23:30:17.289Z,2.91
2018-03-06T23:32:45.630Z,2.95
2018-03-06T23:35:13.958Z,3.06
2018-03-06T23:37:42.299Z,3.00
2018-03-06T23:40:10.613Z,2.97
2018-03-06T23:42:38.962Z,2.95
2018-03-06T23:45:07.290Z,2.86
2018-03-06T23:47:35.634Z,2.89
2018-03-06T23:50:03.956Z,2.97
2018-03-06T23:52:32.298Z,3.01
2018-03-06T23:55:00.622Z,2.97
2018-03-06T23:57:28.966Z,3.00
2018-03-06T23:59:57.290Z,2.92
